Time;durP1;ratioP1;P1;durP2;ratioP2;P2;SDS_P1;SDS_P2;PMS_P1;PMS_P2;Temp;Humidity;BMP_temperature;BMP_pressure;BME280_temperature;BME280_humidity;BME280_pressure;Samples;Min_cycle;Max_cycle;Signal;HPM_P1;HPM_P2
2023/08/01 07:48:56;;;;;;;4.73;3.40;;;;;;;;;;5042338;28;20168;-86
2023/08/01 07:52:00;;;;;;;7.80;3.40;;;;;;;;;;5030749;28;20208;-86
2023/08/01 07:55:05;;;;;;;7.20;3.57;;;;;;;;;;5018877;28;20204;-86
2023/08/01 07:58:09;;;;;;;5.17;3.10;;;;;;;;;;5030105;28;20180;-86
2023/08/01 08:01:13;;;;;;;6.03;3.90;;;;;;;;;;5030816;28;20176;-86
2023/08/01 08:04:17;;;;;;;4.50;3.20;;;;;;;;;;5030701;28;20192;-86
2023/08/01 08:07:21;;;;;;;4.70;2.80;;;;;;;;;;5030572;28;20615;-86
2023/08/01 08:10:25;;;;;;;7.93;3.13;;;;;;;;;;5032281;28;20219;-86
2023/08/01 08:13:30;;;;;;;5.13;2.67;;;;;;;;;;5033413;28;20204;-86
2023/08/01 08:16:34;;;;;;;7.53;3.80;;;;;;;;;;5022672;28;20211;-86
2023/08/01 08:19:38;;;;;;;4.00;2.63;;;;;;;;;;5034286;28;20180;-86
2023/08/01 08:22:42;;;;;;;5.90;3.50;;;;;;;;;;5033905;28;20202;-86
2023/08/01 08:25:47;;;;;;;5.70;3.40;;;;;;;;;;5022579;28;20224;-86
2023/08/01 08:28:52;;;;;;;4.77;3.27;;;;;;;;;;5022068;28;20180;-86
2023/08/01 08:31:56;;;;;;;5.70;3.23;;;;;;;;;;5034092;28;20686;-86
2023/08/01 08:35:00;;;;;;;7.73;3.70;;;;;;;;;;5033592;28;20176;-85
2023/08/01 08:38:04;;;;;;;5.23;3.20;;;;;;;;;;5022513;28;20184;-86
2023/08/01 08:41:19;;;;;;;8.00;3.63;;;;;;;;;;5022900;28;20176;-86
2023/08/01 08:44:29;;;;;;;6.87;3.77;;;;;;;;;;5034522;28;20184;-86
2023/08/01 08:47:37;;;;;;;4.90;3.20;;;;;;;;;;5022733;28;20184;-86
2023/08/01 08:50:42;;;;;;;5.10;3.37;;;;;;;;;;5033993;28;20551;-86
2023/08/01 08:53:48;;;;;;;5.33;3.50;;;;;;;;;;5033468;28;20172;-86
2023/08/01 08:56:52;;;;;;;4.53;3.30;;;;;;;;;;5021588;28;20216;-86
2023/08/01 08:59:58;;;;;;;5.77;3.50;;;;;;;;;;5033827;28;20176;-86
2023/08/01 09:03:03;;;;;;;4.60;3.57;;;;;;;;;;5033165;28;20176;-86
2023/08/01 09:06:14;;;;;;;4.13;3.20;;;;;;;;;;5022288;28;20702;-86
2023/08/01 09:09:18;;;;;;;6.73;3.93;;;;;;;;;;5022990;28;20515;-86
2023/08/01 09:12:22;;;;;;;5.53;3.97;;;;;;;;;;5033430;28;20223;-86
2023/08/01 09:15:28;;;;;;;4.20;3.37;;;;;;;;;;5033616;28;20682;-86
2023/08/01 09:18:32;;;;;;;6.83;3.70;;;;;;;;;;5021836;28;20192;-86
2023/08/01 09:21:38;;;;;;;7.00;3.10;;;;;;;;;;5021587;28;20180;-85
2023/08/01 09:24:53;;;;;;;6.40;3.73;;;;;;;;;;5032588;28;20176;-86
2023/08/01 09:27:57;;;;;;;5.60;3.47;;;;;;;;;;5044304;28;20184;-86
2023/08/01 09:31:01;;;;;;;7.20;3.40;;;;;;;;;;5021542;28;20212;-86
2023/08/01 09:34:06;;;;;;;8.37;3.70;;;;;;;;;;5033879;28;20638;-86
2023/08/01 09:37:10;;;;;;;5.33;3.23;;;;;;;;;;5021452;28;20216;-86
2023/08/01 09:40:15;;;;;;;4.77;3.37;;;;;;;;;;5033036;28;20523;-86
2023/08/01 09:43:19;;;;;;;5.40;3.43;;;;;;;;;;5022185;28;20184;-86
2023/08/01 09:46:24;;;;;;;5.17;3.30;;;;;;;;;;5032293;28;20216;-86
2023/08/01 09:49:29;;;;;;;4.60;3.20;;;;;;;;;;5021758;28;20184;-86
2023/08/01 09:52:34;;;;;;;5.83;3.37;;;;;;;;;;5021775;28;20208;-86
2023/08/01 09:55:40;;;;;;;7.40;3.67;;;;;;;;;;5031997;28;20239;-86
2023/08/01 09:58:45;;;;;;;3.73;2.83;;;;;;;;;;5020747;28;20180;-86
2023/08/01 10:01:51;;;;;;;5.23;3.77;;;;;;;;;;5020442;28;20188;-86
2023/08/01 10:04:58;;;;;;;4.27;3.13;;;;;;;;;;5021255;28;20176;-85
2023/08/01 10:08:03;;;;;;;4.67;3.60;;;;;;;;;;5021116;28;20520;-86
2023/08/01 10:11:08;;;;;;;5.93;3.63;;;;;;;;;;5037050;28;20204;-86
2023/08/01 10:14:12;;;;;;;5.83;3.53;;;;;;;;;;5035428;28;20172;-86
2023/08/01 10:17:18;;;;;;;5.27;3.73;;;;;;;;;;5038137;28;20207;-86
2023/08/01 10:20:23;;;;;;;4.87;3.40;;;;;;;;;;5025539;28;20196;-86
2023/08/01 10:23:28;;;;;;;4.97;3.43;;;;;;;;;;5035465;28;20192;-86
2023/08/01 10:26:32;;;;;;;6.73;3.73;;;;;;;;;;5036003;28;20207;-86
2023/08/01 10:29:37;;;;;;;6.03;3.50;;;;;;;;;;5025037;28;20176;-86
2023/08/01 10:32:41;;;;;;;6.67;3.67;;;;;;;;;;5047973;28;20203;-86
2023/08/01 10:35:45;;;;;;;5.30;3.40;;;;;;;;;;5046602;28;20219;-87
2023/08/01 10:38:54;;;;;;;7.67;4.17;;;;;;;;;;5036894;28;20192;-86
2023/08/01 10:42:05;;;;;;;5.60;3.90;;;;;;;;;;5037833;28;20176;-86
2023/08/01 10:45:23;;;;;;;9.97;3.67;;;;;;;;;;5024215;28;20176;-86
2023/08/01 10:48:27;;;;;;;4.73;3.67;;;;;;;;;;5035457;28;20180;-86
2023/08/01 10:51:35;;;;;;;5.83;3.43;;;;;;;;;;5036646;28;20208;-86
2023/08/01 10:54:40;;;;;;;4.83;3.40;;;;;;;;;;5035021;28;20181;-86
2023/08/01 10:57:49;;;;;;;6.37;3.63;;;;;;;;;;5022518;28;20631;-86
2023/08/01 11:01:00;;;;;;;4.53;2.80;;;;;;;;;;5022235;28;20196;-86
2023/08/01 11:04:13;;;;;;;5.40;3.37;;;;;;;;;;5034466;28;20197;-86
2023/08/01 11:07:19;;;;;;;5.03;2.70;;;;;;;;;;5021740;28;20220;-86
2023/08/01 11:10:28;;;;;;;5.40;2.80;;;;;;;;;;5022150;28;20180;-87
2023/08/01 11:13:36;;;;;;;2.90;2.33;;;;;;;;;;5021642;28;20196;-86
2023/08/01 11:16:42;;;;;;;3.40;2.50;;;;;;;;;;5022610;28;20216;-86
2023/08/01 11:19:46;;;;;;;4.77;2.90;;;;;;;;;;5033556;28;20180;-86
2023/08/01 11:22:56;;;;;;;5.93;2.57;;;;;;;;;;5022406;28;20176;-86
2023/08/01 11:26:05;;;;;;;2.47;2.17;;;;;;;;;;5032252;28;20211;-86
2023/08/01 11:29:11;;;;;;;3.47;2.30;;;;;;;;;;5043625;28;20176;-86
2023/08/01 11:32:15;;;;;;;4.87;2.60;;;;;;;;;;5021505;28;20208;-86
2023/08/01 11:35:19;;;;;;;4.47;2.30;;;;;;;;;;5020918;28;20220;-86
2023/08/01 11:38:26;;;;;;;3.00;2.30;;;;;;;;;;5020559;28;20179;-86
2023/08/01 11:41:30;;;;;;;3.17;2.20;;;;;;;;;;5031490;28;20168;-86
2023/08/01 11:44:35;;;;;;;5.70;2.37;;;;;;;;;;5034295;28;20184;-86
2023/08/01 11:47:47;;;;;;;2.80;2.23;;;;;;;;;;5024958;28;20180;-86
2023/08/01 11:50:58;;;;;;;2.60;2.10;;;;;;;;;;5037147;28;20176;-86
2023/08/01 11:54:04;;;;;;;2.97;1.93;;;;;;;;;;5047684;28;20188;-86
2023/08/01 11:57:08;;;;;;;4.87;2.43;;;;;;;;;;5036103;28;20227;-86
2023/08/01 12:00:21;;;;;;;4.13;1.70;;;;;;;;;;5025722;28;20180;-86
2023/08/01 12:03:25;;;;;;;3.53;2.23;;;;;;;;;;5026723;28;20172;-86
2023/08/01 12:06:32;;;;;;;3.70;2.27;;;;;;;;;;5027278;28;20215;-86
2023/08/01 12:09:36;;;;;;;3.53;2.10;;;;;;;;;;5029377;28;20180;-86
2023/08/01 12:12:46;;;;;;;4.47;2.40;;;;;;;;;;5039856;28;20212;-86
2023/08/01 12:15:53;;;;;;;3.33;2.30;;;;;;;;;;5038898;28;20702;-86
2023/08/01 12:18:57;;;;;;;2.83;1.93;;;;;;;;;;5039778;28;20180;-86
2023/08/01 12:22:01;;;;;;;4.27;2.10;;;;;;;;;;5028637;28;20180;-86
2023/08/01 12:25:06;;;;;;;3.57;2.20;;;;;;;;;;5050970;28;20639;-86
2023/08/01 12:28:10;;;;;;;3.23;2.37;;;;;;;;;;5025514;28;20176;-86
2023/08/01 12:31:19;;;;;;;3.57;1.80;;;;;;;;;;5036008;28;20180;-86
2023/08/01 12:34:23;;;;;;;2.57;1.70;;;;;;;;;;5025495;28;20184;-86
2023/08/01 12:37:27;;;;;;;2.80;1.80;;;;;;;;;;5025070;28;20531;-85
2023/08/01 12:40:31;;;;;;;1.93;1.43;;;;;;;;;;5036132;28;20192;-85
2023/08/01 12:43:36;;;;;;;3.20;1.80;;;;;;;;;;5027050;28;20199;-85
2023/08/01 12:46:40;;;;;;;2.97;1.67;;;;;;;;;;5026992;28;20212;-86
2023/08/01 12:49:45;;;;;;;3.10;1.80;;;;;;;;;;5028725;28;20176;-86
2023/08/01 12:52:49;;;;;;;3.00;2.00;;;;;;;;;;5038488;28;20207;-86
2023/08/01 12:55:53;;;;;;;4.03;1.60;;;;;;;;;;5024957;28;20231;-86
2023/08/01 12:58:57;;;;;;;4.50;1.80;;;;;;;;;;5040565;23;20229;-80
2023/08/01 13:02:08;;;;;;;3.13;1.63;;;;;;;;;;5008028;28;20173;-80
2023/08/01 13:05:12;;;;;;;2.63;1.53;;;;;;;;;;5008450;28;20193;-80
2023/08/01 13:08:16;;;;;;;2.40;1.50;;;;;;;;;;5012993;28;20221;-80
2023/08/01 13:11:20;;;;;;;4.33;1.70;;;;;;;;;;5019862;28;20177;-80
2023/08/01 13:14:24;;;;;;;2.10;1.33;;;;;;;;;;5019598;28;20517;-80
2023/08/01 13:17:28;;;;;;;2.10;1.90;;;;;;;;;;5017855;28;20691;-82
2023/08/01 13:20:32;;;;;;;2.53;1.73;;;;;;;;;;5018460;28;20181;-80
2023/08/01 13:23:37;;;;;;;1.73;1.43;;;;;;;;;;5018983;28;20182;-80
2023/08/01 13:26:41;;;;;;;2.13;1.50;;;;;;;;;;5019852;28;20517;-80
2023/08/01 13:29:45;;;;;;;2.90;1.53;;;;;;;;;;5019296;28;20186;-80
2023/08/01 13:32:49;;;;;;;1.40;1.20;;;;;;;;;;5017541;28;20671;-80
2023/08/01 13:35:54;;;;;;;1.47;1.20;;;;;;;;;;5017692;28;20197;-80
2023/08/01 13:38:58;;;;;;;3.53;1.40;;;;;;;;;;5019991;28;20229;-80
2023/08/01 13:42:03;;;;;;;1.67;1.20;;;;;;;;;;5019235;28;20178;-80
2023/08/01 13:45:07;;;;;;;1.30;1.03;;;;;;;;;;5020256;28;20182;-80
2023/08/01 13:48:11;;;;;;;1.67;1.10;;;;;;;;;;5019364;28;20209;-80
2023/08/01 13:51:17;;;;;;;2.23;1.30;;;;;;;;;;5007516;28;20174;-80
2023/08/01 13:54:21;;;;;;;2.17;1.10;;;;;;;;;;5015325;28;20173;-80
2023/08/01 13:57:26;;;;;;;1.30;1.00;;;;;;;;;;5014493;28;20703;-80
2023/08/01 14:00:31;;;;;;;1.97;1.10;;;;;;;;;;5014641;28;20205;-80
2023/08/01 14:03:37;;;;;;;1.33;1.00;;;;;;;;;;5015215;28;20176;-81
2023/08/01 14:06:41;;;;;;;1.73;1.20;;;;;;;;;;5015833;28;20508;-80
2023/08/01 14:09:46;;;;;;;4.90;1.40;;;;;;;;;;5016316;28;20178;-80
2023/08/01 14:12:50;;;;;;;1.20;1.00;;;;;;;;;;5017590;28;20206;-80
2023/08/01 14:15:54;;;;;;;3.33;1.20;;;;;;;;;;5018835;28;20187;-82
2023/08/01 14:18:59;;;;;;;1.43;1.00;;;;;;;;;;5018273;28;20224;-82
2023/08/01 14:22:03;;;;;;;3.60;1.00;;;;;;;;;;5017628;28;20181;-82
2023/08/01 14:25:08;;;;;;;2.42;1.50;;;;;;;;;;5018236;28;20553;-82
2023/08/01 14:28:13;;;;;;;1.40;1.10;;;;;;;;;;5006945;28;20217;-82
2023/08/01 14:31:16;;;;;;;2.50;1.20;;;;;;;;;;5018584;28;20190;-82
2023/08/01 14:34:21;;;;;;;1.00;0.90;;;;;;;;;;5006104;28;20177;-82
2023/08/01 14:37:25;;;;;;;1.20;1.10;;;;;;;;;;5016976;28;20561;-82
2023/08/01 14:40:30;;;;;;;1.23;1.10;;;;;;;;;;5016230;28;20181;-82
2023/08/01 14:43:35;;;;;;;1.40;1.00;;;;;;;;;;5016810;28;20177;-82
2023/08/01 14:46:39;;;;;;;2.20;1.00;;;;;;;;;;5016089;28;20206;-81
2023/08/01 14:49:44;;;;;;;1.90;1.00;;;;;;;;;;5004948;28;20185;-81
2023/08/01 14:52:48;;;;;;;2.47;1.27;;;;;;;;;;5017361;28;20210;-81
2023/08/01 14:55:59;;;;;;;1.80;1.00;;;;;;;;;;5017134;28;20514;-81
2023/08/01 14:59:03;;;;;;;1.13;0.90;;;;;;;;;;5015857;28;20231;-81
2023/08/01 15:02:08;;;;;;;1.40;1.00;;;;;;;;;;5016006;28;20178;-81
2023/08/01 15:05:12;;;;;;;1.40;1.10;;;;;;;;;;5016103;28;20183;-81
2023/08/01 15:08:16;;;;;;;1.50;1.20;;;;;;;;;;5016148;28;20684;-81
2023/08/01 15:11:20;;;;;;;2.87;0.97;;;;;;;;;;5014649;28;20182;-81
2023/08/01 15:14:24;;;;;;;1.13;0.90;;;;;;;;;;5002770;28;20180;-81
2023/08/01 15:17:29;;;;;;;2.70;1.20;;;;;;;;;;5014323;28;20221;-80
2023/08/01 15:20:35;;;;;;;1.40;0.97;;;;;;;;;;5015284;28;20173;-80
2023/08/01 15:23:38;;;;;;;6.87;1.20;;;;;;;;;;5013853;28;20183;-81
2023/08/01 15:26:43;;;;;;;4.93;0.90;;;;;;;;;;5014400;28;20180;-80
2023/08/01 15:29:47;;;;;;;1.40;1.00;;;;;;;;;;5014093;28;20180;-80
2023/08/01 15:32:51;;;;;;;1.40;1.00;;;;;;;;;;5013855;28;20212;-80
2023/08/01 15:36:00;;;;;;;1.57;0.87;;;;;;;;;;5013567;28;20177;-81
2023/08/01 15:39:04;;;;;;;1.20;1.00;;;;;;;;;;5013903;28;20713;-81
2023/08/01 15:42:08;;;;;;;1.87;0.90;;;;;;;;;;5001806;28;20193;-81
2023/08/01 15:45:12;;;;;;;2.60;1.00;;;;;;;;;;5013781;28;20173;-81
2023/08/01 15:48:16;;;;;;;1.70;1.10;;;;;;;;;;5014595;28;20215;-81
2023/08/01 15:51:20;;;;;;;2.10;1.17;;;;;;;;;;5013225;28;20180;-81
2023/08/01 15:54:25;;;;;;;1.23;0.90;;;;;;;;;;5013685;28;20556;-80
2023/08/01 15:57:29;;;;;;;1.70;1.00;;;;;;;;;;5001817;28;20240;-81
2023/08/01 16:00:34;;;;;;;1.43;0.90;;;;;;;;;;5002298;28;20185;-81
2023/08/01 16:03:40;;;;;;;1.07;0.90;;;;;;;;;;5013131;28;20181;-81
2023/08/01 16:06:44;;;;;;;1.03;0.87;;;;;;;;;;5013231;28;20179;-81
2023/08/01 16:09:48;;;;;;;1.03;0.90;;;;;;;;;;5013155;28;20632;-81
2023/08/01 16:12:52;;;;;;;1.30;0.90;;;;;;;;;;5013246;28;20212;-84
2023/08/01 16:15:56;;;;;;;0.90;0.70;;;;;;;;;;5013144;28;20179;-84
2023/08/01 16:19:00;;;;;;;1.43;0.93;;;;;;;;;;5001134;28;20218;-84
2023/08/01 16:22:05;;;;;;;3.30;1.00;;;;;;;;;;5012774;28;20204;-85
2023/08/01 16:25:09;;;;;;;1.30;1.07;;;;;;;;;;5001565;28;20180;-84
2023/08/01 16:28:14;;;;;;;3.20;0.80;;;;;;;;;;4990766;28;20567;-84
2023/08/01 16:31:18;;;;;;;3.57;0.90;;;;;;;;;;5015307;28;20642;-84
2023/08/01 16:34:22;;;;;;;4.27;0.80;;;;;;;;;;5016783;28;20214;-84
2023/08/01 16:37:28;;;;;;;2.80;1.00;;;;;;;;;;5016682;28;20216;-83
2023/08/01 16:40:32;;;;;;;1.63;0.80;;;;;;;;;;5005147;28;20183;-81
2023/08/01 16:43:36;;;;;;;1.70;1.10;;;;;;;;;;5016376;28;20174;-84
2023/08/01 16:46:40;;;;;;;1.93;0.80;;;;;;;;;;5005298;28;20186;-83
2023/08/01 16:49:47;;;;;;;1.30;1.00;;;;;;;;;;5005226;28;20183;-82
2023/08/01 16:52:51;;;;;;;3.30;1.10;;;;;;;;;;5015960;28;20209;-81
2023/08/01 16:55:55;;;;;;;0.87;0.80;;;;;;;;;;5016658;28;20174;-82
2023/08/01 16:59:00;;;;;;;2.10;1.10;;;;;;;;;;5016237;28;20716;-82
2023/08/01 17:02:05;;;;;;;1.97;1.10;;;;;;;;;;5016481;28;20182;-82
2023/08/01 17:05:12;;;;;;;2.07;1.00;;;;;;;;;;5015895;28;20177;-82
2023/08/01 17:08:16;;;;;;;2.00;1.00;;;;;;;;;;5016067;28;20556;-82
2023/08/01 17:11:20;;;;;;;3.03;0.93;;;;;;;;;;4994315;28;20189;-82
2023/08/01 17:14:25;;;;;;;2.23;1.10;;;;;;;;;;5016519;28;20668;-82
2023/08/01 17:17:29;;;;;;;1.57;1.10;;;;;;;;;;5016044;28;20225;-82
2023/08/01 17:20:36;;;;;;;2.67;1.07;;;;;;;;;;5016758;28;20177;-82
2023/08/01 17:23:40;;;;;;;1.30;1.10;;;;;;;;;;5004598;28;20173;-81
2023/08/01 17:26:44;;;;;;;1.33;1.10;;;;;;;;;;5004517;28;20652;-83
2023/08/01 17:29:48;;;;;;;2.73;1.10;;;;;;;;;;5015473;28;20201;-81
2023/08/01 17:32:53;;;;;;;2.77;1.20;;;;;;;;;;5015944;28;20641;-82
2023/08/01 17:35:57;;;;;;;1.53;1.03;;;;;;;;;;4993617;28;20174;-82
2023/08/01 17:39:01;;;;;;;1.30;1.00;;;;;;;;;;5015673;28;20209;-81
2023/08/01 17:42:05;;;;;;;1.60;1.20;;;;;;;;;;5015555;28;20186;-82
2023/08/01 17:45:10;;;;;;;1.10;1.00;;;;;;;;;;5014512;28;20193;-81
2023/08/01 17:48:14;;;;;;;1.17;1.07;;;;;;;;;;5014608;28;20217;-82
2023/08/01 17:51:19;;;;;;;1.20;1.10;;;;;;;;;;5014778;28;20200;-81
2023/08/01 17:54:23;;;;;;;1.83;1.20;;;;;;;;;;5014424;28;20581;-81
2023/08/01 17:57:27;;;;;;;2.83;1.10;;;;;;;;;;5003012;28;20224;-81
2023/08/01 18:00:32;;;;;;;1.97;1.40;;;;;;;;;;5016040;28;20197;-81
2023/08/01 18:03:37;;;;;;;1.77;1.00;;;;;;;;;;5014277;28;20197;-82
2023/08/01 18:06:41;;;;;;;2.53;1.10;;;;;;;;;;5003097;28;20177;-82
2023/08/01 18:09:45;;;;;;;2.23;0.90;;;;;;;;;;5014651;28;20182;-82
2023/08/01 18:12:48;;;;;;;2.40;1.20;;;;;;;;;;5014521;28;20620;-82
2023/08/01 18:15:52;;;;;;;1.83;1.30;;;;;;;;;;5014346;28;20193;-82
2023/08/01 18:18:57;;;;;;;1.40;1.13;;;;;;;;;;5013883;28;20217;-82
2023/08/01 18:22:01;;;;;;;1.73;1.27;;;;;;;;;;4992385;28;20540;-82
2023/08/01 18:25:05;;;;;;;4.60;1.40;;;;;;;;;;5015482;28;20178;-82
2023/08/01 18:28:10;;;;;;;1.50;1.20;;;;;;;;;;5014093;28;20217;-81
2023/08/01 18:31:14;;;;;;;2.50;0.90;;;;;;;;;;5013786;28;20664;-82
2023/08/01 18:34:18;;;;;;;1.10;1.00;;;;;;;;;;5014473;28;20221;-81
2023/08/01 18:37:22;;;;;;;4.93;1.00;;;;;;;;;;5013544;28;20565;-81
2023/08/01 18:40:26;;;;;;;1.40;1.13;;;;;;;;;;5014275;28;20177;-82
2023/08/01 18:43:30;;;;;;;3.17;1.30;;;;;;;;;;5014200;28;20181;-82
2023/08/01 18:46:34;;;;;;;3.87;1.50;;;;;;;;;;5002665;28;20186;-81
2023/08/01 18:49:39;;;;;;;1.93;1.30;;;;;;;;;;5017059;28;20181;-82
2023/08/01 18:52:49;;;;;;;2.37;1.53;;;;;;;;;;5016956;28;20178;-83
2023/08/01 18:55:53;;;;;;;1.70;1.30;;;;;;;;;;5017027;28;20194;-83
2023/08/01 18:58:57;;;;;;;3.57;1.30;;;;;;;;;;5025566;23;20240;-85
2023/08/01 19:02:01;;;;;;;3.63;2.60;;;;;;;;;;5004486;28;20178;-85
2023/08/01 19:05:07;;;;;;;3.30;1.00;;;;;;;;;;5002888;28;20613;-85
2023/08/01 19:08:11;;;;;;;3.27;1.10;;;;;;;;;;5004327;28;20556;-85
2023/08/01 19:11:15;;;;;;;2.63;1.20;;;;;;;;;;4992199;28;20197;-84
2023/08/01 19:14:19;;;;;;;1.93;1.07;;;;;;;;;;4992532;28;20217;-84
2023/08/01 19:17:24;;;;;;;1.70;1.17;;;;;;;;;;5004200;28;20182;-84
2023/08/01 19:20:28;;;;;;;1.60;1.20;;;;;;;;;;4992846;28;20203;-85
2023/08/01 19:23:34;;;;;;;1.83;1.30;;;;;;;;;;5004387;28;20185;-85
2023/08/01 19:26:39;;;;;;;1.20;0.93;;;;;;;;;;5015148;28;20178;-85
2023/08/01 19:29:43;;;;;;;1.50;0.87;;;;;;;;;;5003228;28;20186;-85
2023/08/01 19:32:47;;;;;;;1.00;0.90;;;;;;;;;;5005642;28;20181;-85
2023/08/01 19:35:52;;;;;;;3.33;1.00;;;;;;;;;;4992587;28;20513;-85
2023/08/01 19:38:57;;;;;;;1.47;0.90;;;;;;;;;;4990972;28;20221;-85
2023/08/01 19:42:01;;;;;;;1.37;1.00;;;;;;;;;;5014784;28;20632;-85
2023/08/01 19:45:07;;;;;;;3.40;1.00;;;;;;;;;;5002551;28;20620;-85
2023/08/01 19:48:11;;;;;;;3.10;1.00;;;;;;;;;;5002773;28;20217;-85
2023/08/01 19:51:15;;;;;;;1.50;1.03;;;;;;;;;;5002494;28;20185;-85
2023/08/01 19:54:19;;;;;;;2.77;1.10;;;;;;;;;;4991659;28;20210;-85
2023/08/01 19:57:24;;;;;;;3.70;0.90;;;;;;;;;;5014133;28;20186;-85
2023/08/01 20:00:28;;;;;;;1.17;0.80;;;;;;;;;;5003544;28;20182;-85
2023/08/01 20:03:32;;;;;;;1.77;1.17;;;;;;;;;;4992514;28;20277;-85
2023/08/01 20:06:36;;;;;;;2.70;1.00;;;;;;;;;;5005716;28;20201;-85
2023/08/01 20:09:41;;;;;;;2.57;1.80;;;;;;;;;;5006778;28;20193;-85
2023/08/01 20:12:45;;;;;;;1.67;1.03;;;;;;;;;;4995625;28;20182;-85
2023/08/01 20:15:58;;;;;;;1.43;0.80;;;;;;;;;;5006498;28;20174;-84
2023/08/01 20:19:03;;;;;;;1.50;0.90;;;;;;;;;;4996710;28;20225;-85
2023/08/01 20:22:07;;;;;;;1.90;1.10;;;;;;;;;;4995784;28;20197;-84
2023/08/01 20:25:11;;;;;;;1.30;0.90;;;;;;;;;;5017529;28;20193;-85
2023/08/01 20:28:17;;;;;;;1.27;0.97;;;;;;;;;;5006458;28;20675;-85
2023/08/01 20:31:21;;;;;;;1.63;1.03;;;;;;;;;;5006723;28;20182;-85
2023/08/01 20:34:25;;;;;;;1.60;1.20;;;;;;;;;;4995119;28;20204;-85
2023/08/01 20:37:31;;;;;;;2.00;1.10;;;;;;;;;;5006856;28;20177;-84
2023/08/01 20:40:39;;;;;;;2.30;1.07;;;;;;;;;;5017804;28;20177;-85
2023/08/01 20:43:43;;;;;;;2.60;1.00;;;;;;;;;;4995129;28;20186;-85
2023/08/01 20:46:47;;;;;;;0.97;0.73;;;;;;;;;;5005990;28;20186;-85
2023/08/01 20:49:51;;;;;;;1.30;0.97;;;;;;;;;;5008102;28;20177;-84
2023/08/01 20:52:56;;;;;;;1.13;1.03;;;;;;;;;;4994671;28;20182;-85
2023/08/01 20:56:00;;;;;;;1.70;0.90;;;;;;;;;;5005287;28;20564;-85
2023/08/01 20:59:05;;;;;;;2.10;1.20;;;;;;;;;;5005583;28;20221;-85
2023/08/01 21:02:09;;;;;;;1.60;1.23;;;;;;;;;;4994737;28;20193;-85
2023/08/01 21:05:13;;;;;;;3.27;1.10;;;;;;;;;;4994730;28;20205;-85
2023/08/01 21:08:17;;;;;;;1.50;0.90;;;;;;;;;;4994831;28;20553;-85
2023/08/01 21:11:22;;;;;;;1.73;1.10;;;;;;;;;;5016709;28;20201;-85
2023/08/01 21:14:26;;;;;;;1.00;0.90;;;;;;;;;;5016121;28;20224;-85
2023/08/01 21:17:30;;;;;;;1.20;1.10;;;;;;;;;;5016549;28;20711;-85
2023/08/01 21:20:34;;;;;;;1.27;0.83;;;;;;;;;;4994190;28;20178;-85
2023/08/01 21:23:40;;;;;;;1.70;1.07;;;;;;;;;;5005844;28;20186;-85
2023/08/01 21:26:44;;;;;;;2.87;0.87;;;;;;;;;;4993751;28;20177;-85
2023/08/01 21:29:48;;;;;;;1.10;1.00;;;;;;;;;;5005061;28;20177;-84
2023/08/01 21:32:52;;;;;;;1.23;1.00;;;;;;;;;;4993662;28;20549;-85
2023/08/01 21:35:56;;;;;;;4.63;0.97;;;;;;;;;;4993975;28;20206;-85
2023/08/01 21:39:01;;;;;;;2.33;1.10;;;;;;;;;;5016280;28;20220;-84
2023/08/01 21:42:06;;;;;;;3.27;1.20;;;;;;;;;;4994265;28;20181;-85
2023/08/01 21:45:11;;;;;;;1.30;1.03;;;;;;;;;;5005758;28;20181;-85
2023/08/01 21:48:15;;;;;;;1.20;1.00;;;;;;;;;;5005671;28;20221;-84
2023/08/01 21:51:19;;;;;;;1.63;1.10;;;;;;;;;;5005714;28;20178;-85
2023/08/01 21:54:23;;;;;;;3.00;0.97;;;;;;;;;;4994640;28;20201;-85
2023/08/01 21:57:27;;;;;;;3.23;1.30;;;;;;;;;;5004051;28;20201;-85
2023/08/01 22:00:32;;;;;;;2.23;1.10;;;;;;;;;;5016499;28;20186;-85
2023/08/01 22:03:36;;;;;;;1.50;1.10;;;;;;;;;;5006228;28;20181;-85
2023/08/01 22:06:40;;;;;;;2.43;1.07;;;;;;;;;;5005294;28;20178;-85
2023/08/01 22:09:44;;;;;;;2.60;1.43;;;;;;;;;;5017388;28;20189;-85
2023/08/01 22:12:50;;;;;;;3.17;1.03;;;;;;;;;;5005936;28;20526;-85
2023/08/01 22:15:54;;;;;;;1.77;1.13;;;;;;;;;;5004566;28;20209;-84
2023/08/01 22:18:59;;;;;;;3.03;1.13;;;;;;;;;;4994221;28;20545;-85
2023/08/01 22:22:03;;;;;;;2.03;1.17;;;;;;;;;;4993432;28;20522;-85
2023/08/01 22:25:08;;;;;;;1.27;1.00;;;;;;;;;;5004342;28;20174;-85
2023/08/01 22:28:12;;;;;;;3.07;1.10;;;;;;;;;;5003121;28;20213;-85
2023/08/01 22:31:16;;;;;;;2.20;1.20;;;;;;;;;;4993199;28;20177;-85
2023/08/01 22:34:21;;;;;;;3.37;1.20;;;;;;;;;;5004180;28;20182;-85
2023/08/01 22:37:25;;;;;;;1.97;1.13;;;;;;;;;;4992596;28;20189;-84
2023/08/01 22:40:29;;;;;;;1.27;1.17;;;;;;;;;;4993022;28;20186;-85
2023/08/01 22:43:33;;;;;;;1.93;1.10;;;;;;;;;;5003322;28;20197;-85
2023/08/01 22:46:37;;;;;;;4.80;1.33;;;;;;;;;;5015970;28;20174;-85
2023/08/01 22:49:42;;;;;;;3.17;1.23;;;;;;;;;;5004524;28;20181;-85
2023/08/01 22:52:48;;;;;;;3.43;2.03;;;;;;;;;;5004324;28;20632;-85
2023/08/01 22:55:53;;;;;;;1.67;1.43;;;;;;;;;;5003850;28;20209;-84
2023/08/01 22:58:57;;;;;;;1.70;1.03;;;;;;;;;;4991970;28;20224;-85
2023/08/01 23:02:01;;;;;;;1.83;1.23;;;;;;;;;;5003926;28;20178;-85
2023/08/01 23:05:06;;;;;;;2.43;1.30;;;;;;;;;;4992794;28;20181;-85
2023/08/01 23:08:10;;;;;;;3.77;1.50;;;;;;;;;;5002829;28;20220;-85
2023/08/01 23:11:14;;;;;;;1.23;1.00;;;;;;;;;;5002815;28;20565;-85
2023/08/01 23:14:19;;;;;;;1.97;1.10;;;;;;;;;;5003320;28;20178;-85
2023/08/01 23:17:23;;;;;;;1.73;1.20;;;;;;;;;;5014596;28;20177;-84
2023/08/01 23:20:27;;;;;;;1.83;1.30;;;;;;;;;;5003252;28;20181;-85
2023/08/01 23:23:31;;;;;;;1.67;1.30;;;;;;;;;;5003744;28;20185;-85
2023/08/01 23:26:35;;;;;;;1.70;1.30;;;;;;;;;;5003324;28;20193;-85
2023/08/01 23:29:40;;;;;;;1.50;1.20;;;;;;;;;;5003323;28;20197;-85
2023/08/01 23:32:44;;;;;;;2.53;1.30;;;;;;;;;;5014445;28;20663;-85
2023/08/01 23:35:48;;;;;;;2.57;1.13;;;;;;;;;;5014695;28;20205;-85
2023/08/01 23:38:52;;;;;;;2.53;1.30;;;;;;;;;;4992007;28;20221;-85
2023/08/01 23:41:56;;;;;;;3.60;1.40;;;;;;;;;;5007200;28;20632;-85
2023/08/01 23:45:01;;;;;;;1.87;1.10;;;;;;;;;;5019570;28;20186;-85
2023/08/01 23:48:06;;;;;;;1.70;1.30;;;;;;;;;;5007570;28;20216;-85
2023/08/01 23:51:15;;;;;;;2.37;1.43;;;;;;;;;;5007077;28;20521;-85
2023/08/01 23:54:20;;;;;;;1.90;1.33;;;;;;;;;;5007067;28;20182;-84
2023/08/01 23:57:24;;;;;;;2.27;1.50;;;;;;;;;;5007323;28;20177;-85
